Time;durP1;ratioP1;P1;durP2;ratioP2;P2;SDS_P1;SDS_P2;PMS_P1;PMS_P2;Temp;Humidity;BMP_temperature;BMP_pressure;BME280_temperature;BME280_humidity;BME280_pressure;Samples;Min_cycle;Max_cycle;Signal;HPM_P1;HPM_P2
2022/04/10 00:02:13;;;;;;;6.72;2.40;;;;;;;4.79;67.00;99439.41;5031802;28;20034;-59
2022/04/10 00:04:39;;;;;;;10.43;3.90;;;;;;;4.66;67.52;99436.97;5035911;28;20129;-58
2022/04/10 00:07:04;;;;;;;8.82;2.53;;;;;;;4.73;67.06;99431.72;5034486;28;20045;-59
2022/04/10 00:09:30;;;;;;;10.35;3.20;;;;;;;4.72;67.03;99432.59;5035414;28;20033;-58
2022/04/10 00:11:55;;;;;;;8.23;3.25;;;;;;;4.76;67.16;99435.13;5033049;28;20052;-58
2022/04/10 00:14:20;;;;;;;7.90;1.80;;;;;;;4.74;66.75;99441.22;5028231;28;20033;-58
2022/04/10 00:16:46;;;;;;;6.30;1.95;;;;;;;4.84;66.28;99432.44;5036355;28;20488;-58
2022/04/10 00:19:11;;;;;;;9.15;2.25;;;;;;;4.69;66.80;99443.91;5019776;28;20045;-58
2022/04/10 00:21:36;;;;;;;7.30;2.25;;;;;;;4.80;66.19;99438.56;5034318;28;20045;-57
2022/04/10 00:24:02;;;;;;;8.23;2.58;;;;;;;4.77;66.24;99431.63;5034480;28;20038;-57
2022/04/10 00:26:27;;;;;;;5.15;2.45;;;;;;;4.69;66.60;99434.34;5025522;28;20168;-58
2022/04/10 00:28:53;;;;;;;10.15;1.90;;;;;;;4.67;66.55;99440.47;5035779;28;20044;-58
2022/04/10 00:31:19;;;;;;;7.20;2.35;;;;;;;4.72;66.37;99438.66;5033285;28;20139;-58
2022/04/10 00:33:44;;;;;;;5.60;2.03;;;;;;;4.73;66.31;99431.72;5022356;28;20413;-58
2022/04/10 00:36:10;;;;;;;9.32;2.55;;;;;;;4.60;66.94;99433.59;5022485;28;20493;-58
2022/04/10 00:38:35;;;;;;;9.18;2.30;;;;;;;4.68;66.50;99435.22;5031305;28;20088;-58
2022/04/10 00:41:01;;;;;;;7.03;2.47;;;;;;;4.69;66.46;99434.34;5024872;28;20128;-58
2022/04/10 00:43:32;;;;;;;7.88;2.15;;;;;;;4.71;66.36;99444.75;5027877;28;20034;-56
2022/04/10 00:46:00;;;;;;;8.02;2.22;;;;;;;4.70;66.27;99440.41;5026392;28;20092;-57
2022/04/10 00:48:26;;;;;;;9.50;2.58;;;;;;;4.74;66.31;99451.63;5032284;28;20045;-57
2022/04/10 00:53:39;;;;;;;6.57;1.98;;;;;;;4.75;66.28;99441.22;5017301;28;20053;-58
2022/04/10 00:56:05;;;;;;;6.43;2.15;;;;;;;4.72;66.16;99450.81;5026299;28;20483;-57
2022/04/10 00:58:30;;;;;;;7.50;2.17;;;;;;;4.73;66.22;99455.97;5032443;28;20120;-57
2022/04/10 01:00:56;;;;;;;13.25;2.40;;;;;;;4.70;66.43;99453.41;5027382;28;20025;-57
2022/04/10 01:03:21;;;;;;;8.77;2.35;;;;;;;4.75;66.17;99458.56;5035125;28;20037;-56
2022/04/10 01:05:47;;;;;;;8.98;1.85;;;;;;;4.73;66.54;99460.34;5025011;28;20048;-58
2022/04/10 01:08:14;;;;;;;6.55;2.38;;;;;;;4.84;66.19;99459.31;5028401;28;20069;-58
2022/04/10 01:10:39;;;;;;;9.00;2.20;;;;;;;4.98;65.88;99456.50;5016040;28;20042;-57
2022/04/10 01:13:05;;;;;;;7.05;1.70;;;;;;;5.03;65.32;99452.13;5016905;28;20053;-58
2022/04/10 01:15:31;;;;;;;8.30;2.95;;;;;;;4.91;65.68;99454.91;5026553;28;20033;-58
2022/04/10 01:17:56;;;;;;;8.63;2.60;;;;;;;4.86;65.89;99461.88;5034054;28;20037;-57
2022/04/10 01:20:22;;;;;;;9.07;1.92;;;;;;;4.77;66.18;99451.59;5016987;28;20473;-57
2022/04/10 01:22:48;;;;;;;6.43;2.00;;;;;;;4.70;66.14;99456.00;5029493;28;20029;-59
2022/04/10 01:25:14;;;;;;;6.22;2.05;;;;;;;4.65;66.22;99468.22;5029652;28;20091;-57
2022/04/10 01:27:40;;;;;;;9.02;2.00;;;;;;;4.70;66.34;99463.81;5018713;28;20042;-57
2022/04/10 01:30:08;;;;;;;9.20;2.17;;;;;;;4.60;66.77;99449.22;5021957;28;20465;-58
2022/04/10 01:32:34;;;;;;;9.13;2.22;;;;;;;4.59;67.07;99458.78;5027950;28;20069;-57
2022/04/10 01:35:01;;;;;;;8.18;1.80;;;;;;;4.49;67.39;99462.34;5027118;28;20049;-57
2022/04/10 01:37:28;;;;;;;5.30;1.92;;;;;;;4.58;66.83;99457.03;5016663;28;20473;-57
2022/04/10 01:39:54;;;;;;;10.82;2.10;;;;;;;4.41;67.89;99453.78;5015032;28;20517;-57
2022/04/10 01:42:20;;;;;;;9.15;2.25;;;;;;;4.53;67.39;99461.44;5017776;28;20038;-57
2022/04/10 01:44:45;;;;;;;6.05;1.70;;;;;;;4.49;67.47;99462.34;5032156;28;20105;-57
2022/04/10 01:47:10;;;;;;;14.48;2.15;;;;;;;4.50;67.46;99455.41;5032832;28;20049;-57
2022/04/10 01:49:37;;;;;;;8.80;1.92;;;;;;;4.50;67.46;99458.00;5032837;28;20038;-57
2022/04/10 01:52:04;;;;;;;7.93;1.83;;;;;;;4.48;67.21;99462.38;5026356;28;20093;-58
2022/04/10 01:54:29;;;;;;;9.90;2.03;;;;;;;4.38;67.92;99466.81;5020247;28;20041;-57
2022/04/10 01:56:55;;;;;;;8.48;2.00;;;;;;;4.40;67.75;99459.84;5027154;28;20087;-57
2022/04/10 01:59:20;;;;;;;7.65;2.10;;;;;;;4.41;67.86;99466.78;5028179;28;20049;-58
2022/04/10 02:01:46;;;;;;;8.27;1.70;;;;;;;4.34;68.13;99472.91;5023408;28;20121;-58
2022/04/10 02:04:11;;;;;;;8.70;1.73;;;;;;;4.39;67.89;99464.19;5016251;28;20041;-58
2022/04/10 02:06:37;;;;;;;6.93;1.80;;;;;;;4.44;67.49;99469.34;5015010;28;20555;-56
2022/04/10 02:09:09;;;;;;;7.18;1.92;;;;;;;4.29;68.17;99477.31;5015072;28;20058;-58
2022/04/10 02:11:34;;;;;;;8.32;1.88;;;;;;;4.47;67.52;99478.84;5024308;28;20025;-58
2022/04/10 02:14:00;;;;;;;7.10;2.38;;;;;;;4.40;67.78;99470.25;5033395;28;20050;-58
2022/04/10 02:16:26;;;;;;;10.23;1.90;;;;;;;4.48;67.46;99471.03;5023092;28;20034;-57
2022/04/10 02:18:51;;;;;;;7.55;1.40;;;;;;;4.47;67.55;99477.13;5016589;28;20109;-57
2022/04/10 02:21:17;;;;;;;6.13;1.65;;;;;;;4.35;67.92;99480.72;5014379;28;20042;-57
2022/04/10 02:23:43;;;;;;;6.95;2.00;;;;;;;4.33;68.02;99485.06;5014772;28;20061;-57
2022/04/10 02:26:12;;;;;;;6.90;2.10;;;;;;;4.23;68.59;99480.84;5031280;28;20079;-57
2022/04/10 02:28:39;;;;;;;8.48;2.40;;;;;;;4.33;67.96;99477.25;5033266;28;20073;-58
2022/04/10 02:31:05;;;;;;;9.43;1.92;;;;;;;4.25;68.44;99481.69;5031940;28;20037;-57
2022/04/10 02:33:32;;;;;;;9.48;2.20;;;;;;;4.08;68.99;99475.81;5024215;28;20041;-58
2022/04/10 02:35:58;;;;;;;9.00;2.60;;;;;;;4.17;68.79;99471.34;5032915;28;20064;-57
2022/04/10 02:38:24;;;;;;;10.23;2.20;;;;;;;4.24;68.39;99476.50;5033295;28;20061;-57
2022/04/10 02:40:49;;;;;;;7.85;2.13;;;;;;;4.28;68.20;99467.81;5024951;28;20104;-57
2022/04/10 02:43:15;;;;;;;7.75;1.85;;;;;;;4.22;68.72;99478.25;5032173;28;20040;-57
2022/04/10 02:45:43;;;;;;;10.20;2.33;;;;;;;4.11;69.33;99471.44;5031823;28;20441;-57
2022/04/10 02:48:09;;;;;;;10.32;2.13;;;;;;;4.19;68.93;99469.63;5020736;28;20033;-57
2022/04/10 02:50:39;;;;;;;5.32;1.58;;;;;;;4.09;69.43;99475.78;5032671;28;20038;-56
2022/04/10 02:53:05;;;;;;;6.68;1.70;;;;;;;4.15;69.14;99467.94;5027414;28;20030;-56
2022/04/10 02:55:31;;;;;;;4.70;1.58;;;;;;;4.20;68.83;99470.47;5031827;28;20037;-58
2022/04/10 02:57:57;;;;;;;6.78;1.73;;;;;;;4.12;69.38;99478.34;5030221;28;20044;-57
2022/04/10 03:00:22;;;;;;;13.57;2.25;;;;;;;4.19;68.94;99480.03;5016334;28;20033;-57
2022/04/10 03:02:47;;;;;;;9.73;2.10;;;;;;;4.14;69.04;99471.38;5032899;28;20033;-57
2022/04/10 03:05:13;;;;;;;8.00;2.28;;;;;;;4.19;69.02;99490.41;5029916;28;20385;-58
2022/04/10 03:07:38;;;;;;;13.10;2.75;;;;;;;4.19;69.10;99480.03;5030631;28;20026;-57
2022/04/10 03:10:04;;;;;;;6.00;1.95;;;;;;;4.25;68.75;99478.22;5014418;28;20533;-57
2022/04/10 03:12:30;;;;;;;6.93;2.00;;;;;;;4.23;69.07;99479.97;5032267;28;20047;-57
2022/04/10 03:14:55;;;;;;;7.32;2.03;;;;;;;4.27;68.92;99485.16;5024061;28;20046;-56
2022/04/10 03:17:21;;;;;;;5.72;2.08;;;;;;;4.24;69.05;99484.31;5016682;28;20121;-57
2022/04/10 03:19:46;;;;;;;8.80;2.08;;;;;;;4.22;69.00;99478.25;5013826;28;20045;-57
2022/04/10 03:22:12;;;;;;;10.65;2.00;;;;;;;4.24;69.09;99481.72;5022522;28;20033;-57
2022/04/10 03:24:37;;;;;;;7.35;2.10;;;;;;;4.28;69.06;99489.47;5029116;28;20030;-57
2022/04/10 03:27:02;;;;;;;10.73;2.55;;;;;;;4.34;68.92;99472.91;5033252;28;20037;-57
2022/04/10 03:29:28;;;;;;;12.18;3.30;;;;;;;4.37;68.77;99481.56;5022652;28;20445;-57
2022/04/10 03:31:53;;;;;;;8.48;2.67;;;;;;;4.42;68.36;99489.31;5032379;28;20136;-57
2022/04/10 03:34:19;;;;;;;10.15;2.42;;;;;;;4.29;69.41;99488.56;5026199;28;20037;-57
2022/04/10 03:36:44;;;;;;;6.57;2.08;;;;;;;4.39;68.76;99499.75;5034880;28;20037;-57
2022/04/10 03:39:09;;;;;;;7.40;2.20;;;;;;;4.36;68.98;99497.19;5018480;28;20412;-58
2022/04/10 03:41:35;;;;;;;10.77;2.70;;;;;;;4.38;69.00;99505.81;5024505;28;20064;-58
2022/04/10 03:44:00;;;;;;;11.13;2.28;;;;;;;4.31;69.23;99509.34;5035634;28;20117;-57
2022/04/10 03:46:26;;;;;;;11.38;2.55;;;;;;;4.29;69.38;99509.38;5026153;28;20069;-57
2022/04/10 03:48:51;;;;;;;10.55;2.65;;;;;;;4.27;69.38;99510.25;5032167;28;20041;-57
2022/04/10 03:51:16;;;;;;;10.45;2.60;;;;;;;4.19;70.00;99510.38;5037014;28;20037;-57
2022/04/10 03:53:42;;;;;;;11.43;2.80;;;;;;;4.19;69.91;99511.22;5034393;28;20108;-58
2022/04/10 03:56:07;;;;;;;10.23;2.85;;;;;;;4.18;69.92;99509.47;5036724;28;20045;-60
2022/04/10 03:58:33;;;;;;;9.15;2.55;;;;;;;4.33;69.28;99523.22;5035465;28;20132;-58
2022/04/10 04:00:58;;;;;;;7.13;2.22;;;;;;;4.35;69.28;99526.66;5037279;28;20041;-58
2022/04/10 04:03:24;;;;;;;12.25;2.70;;;;;;;4.41;69.26;99532.66;5026798;28;20030;-58
2022/04/10 04:05:49;;;;;;;10.55;2.70;;;;;;;4.36;69.25;99531.00;5022053;28;20072;-57
2022/04/10 04:08:15;;;;;;;13.52;3.00;;;;;;;4.41;69.03;99534.41;5042700;28;20065;-59
2022/04/10 04:10:41;;;;;;;8.30;2.40;;;;;;;4.40;69.19;99540.50;5046985;28;20037;-59
2022/04/10 04:13:07;;;;;;;7.55;2.33;;;;;;;4.42;69.02;99541.31;5035354;28;20029;-58
2022/04/10 04:15:32;;;;;;;6.55;2.28;;;;;;;4.49;69.10;99550.78;5021762;28;20401;-59
2022/04/10 04:17:58;;;;;;;10.00;2.40;;;;;;;4.65;68.88;99557.56;5032092;28;20052;-58
2022/04/10 04:20:23;;;;;;;7.28;2.30;;;;;;;4.83;68.24;99547.84;5036262;28;20046;-58
2022/04/10 04:22:49;;;;;;;7.90;2.30;;;;;;;4.98;67.73;99565.84;5029139;28;20018;-57
2022/04/10 04:25:14;;;;;;;7.32;2.13;;;;;;;4.99;67.49;99575.41;5017156;28;20029;-59
2022/04/10 04:27:40;;;;;;;8.13;2.03;;;;;;;5.25;67.01;99567.28;5017824;28;20389;-58
2022/04/10 04:30:06;;;;;;;9.85;2.58;;;;;;;5.44;66.40;99573.09;5016860;28;20030;-58
2022/04/10 04:32:31;;;;;;;7.93;2.53;;;;;;;5.64;65.75;99573.69;5018450;28;20099;-57
2022/04/10 04:34:57;;;;;;;13.27;3.03;;;;;;;5.73;65.37;99582.25;5036332;28;20520;-58
2022/04/10 04:37:22;;;;;;;8.10;2.53;;;;;;;5.92;64.66;99578.53;5017113;28;20531;-58
2022/04/10 04:39:48;;;;;;;8.63;2.72;;;;;;;5.87;64.53;99580.31;5016376;28;20470;-58
2022/04/10 04:42:14;;;;;;;9.15;2.55;;;;;;;5.92;64.40;99586.34;5033504;28;20370;-57
2022/04/10 04:44:39;;;;;;;10.77;2.70;;;;;;;5.92;64.29;99594.16;5016553;28;20034;-59
2022/04/10 04:47:05;;;;;;;5.70;2.45;;;;;;;5.87;64.23;99591.59;5033158;28;20041;-57
2022/04/10 04:49:31;;;;;;;9.98;3.15;;;;;;;5.85;64.34;99610.75;5025188;28;20393;-58
2022/04/10 04:51:56;;;;;;;7.28;2.10;;;;;;;5.92;64.37;99604.59;5016428;28;20099;-58
2022/04/10 04:54:21;;;;;;;10.55;2.15;;;;;;;6.06;63.65;99607.84;5025020;28;20041;-58
2022/04/10 04:56:47;;;;;;;7.95;2.25;;;;;;;6.13;63.58;99608.59;5029000;28;20139;-59
2022/04/10 04:59:14;;;;;;;7.93;2.30;;;;;;;6.38;63.03;99609.94;5036298;28;20032;-58
2022/04/10 05:01:41;;;;;;;8.13;3.03;;;;;;;6.22;63.27;99612.81;5019739;28;20464;-58
2022/04/10 05:04:10;;;;;;;11.00;2.58;;;;;;;6.34;62.98;99618.72;5035281;28;20034;-58
2022/04/10 05:06:35;;;;;;;7.38;2.55;;;;;;;6.59;62.27;99624.38;5035998;28;20080;-58
2022/04/10 05:09:01;;;;;;;10.68;2.50;;;;;;;6.70;61.86;99624.16;5023502;28;20033;-58
2022/04/10 05:11:26;;;;;;;8.60;2.65;;;;;;;6.85;61.58;99623.03;5023842;28;20030;-58
2022/04/10 05:13:51;;;;;;;11.75;2.90;;;;;;;7.18;60.63;99634.56;5017149;28;20053;-57
2022/04/10 05:16:18;;;;;;;7.88;2.50;;;;;;;6.75;62.86;99639.78;5017836;28;20117;-58
2022/04/10 05:18:43;;;;;;;11.40;2.28;;;;;;;6.72;63.41;99637.22;5026321;28;20037;-57
2022/04/10 05:21:09;;;;;;;9.98;2.50;;;;;;;6.48;64.11;99636.75;5015984;28;20129;-55
2022/04/10 05:23:34;;;;;;;8.75;2.15;;;;;;;6.61;63.91;99632.16;5031704;28;20033;-60
2022/04/10 05:26:00;;;;;;;9.80;2.55;;;;;;;6.59;64.01;99641.78;5034344;28;20396;-58
2022/04/10 05:28:26;;;;;;;9.43;2.65;;;;;;;6.56;63.87;99645.31;5032748;28;20556;-58
2022/04/10 05:30:51;;;;;;;13.65;3.33;;;;;;;6.68;63.22;99657.28;5028569;28;20120;-57
2022/04/10 05:33:17;;;;;;;19.13;3.15;;;;;;;6.79;62.79;99646.66;5025321;28;20036;-58
2022/04/10 05:35:42;;;;;;;9.35;2.90;;;;;;;6.96;62.37;99652.44;5027628;28;20033;-58
2022/04/10 05:38:08;;;;;;;10.65;3.10;;;;;;;7.30;61.55;99659.59;5027143;28;20362;-58
2022/04/10 05:40:34;;;;;;;11.02;2.78;;;;;;;7.24;61.12;99662.34;5021597;28;20057;-57
2022/04/10 05:42:59;;;;;;;7.63;2.83;;;;;;;7.31;60.95;99659.59;5019828;28;20029;-57
2022/04/10 05:45:26;;;;;;;10.05;2.90;;;;;;;7.06;61.37;99660.94;5024395;28;20037;-57
2022/04/10 05:47:52;;;;;;;7.85;2.42;;;;;;;7.21;61.12;99671.09;5028767;28;20044;-57
2022/04/10 05:50:18;;;;;;;10.07;2.60;;;;;;;7.20;61.01;99673.75;5020544;28;20117;-58
2022/04/10 05:52:45;;;;;;;10.15;2.95;;;;;;;7.02;61.39;99670.63;5027263;28;20037;-58
2022/04/10 05:55:12;;;;;;;7.50;2.50;;;;;;;7.05;61.30;99673.16;5024913;28;20559;-57
2022/04/10 05:57:38;;;;;;;6.55;3.03;;;;;;;7.15;61.06;99668.63;5027585;28;20476;-56
2022/04/10 06:00:06;;;;;;;8.32;2.60;;;;;;;7.06;61.30;99677.50;5026646;28;20037;-58
2022/04/10 06:02:32;;;;;;;9.38;3.03;;;;;;;7.31;60.95;99682.25;5027042;28;20032;-58
2022/04/10 06:04:57;;;;;;;7.53;2.78;;;;;;;7.02;61.73;99683.69;5020795;28;20037;-59
2022/04/10 06:07:23;;;;;;;8.55;2.40;;;;;;;7.44;60.66;99683.72;5036989;28;20037;-58
2022/04/10 06:09:49;;;;;;;7.93;3.00;;;;;;;7.40;60.42;99702.97;5032562;28;20129;-58
2022/04/10 06:12:15;;;;;;;8.90;2.90;;;;;;;7.57;59.96;99687.81;5024013;28;20038;-57
2022/04/10 06:14:40;;;;;;;9.43;2.70;;;;;;;7.96;59.13;99706.19;5019892;28;20444;-57
2022/04/10 06:17:07;;;;;;;7.47;2.90;;;;;;;8.05;59.13;99690.28;5038545;28;20036;-57
2022/04/10 06:19:33;;;;;;;9.48;2.72;;;;;;;8.25;58.44;99702.03;5041936;28;20038;-58
2022/04/10 06:21:58;;;;;;;8.13;3.20;;;;;;;8.39;58.24;99703.50;5034325;28;20163;-59
2022/04/10 06:24:24;;;;;;;7.53;2.67;;;;;;;8.10;57.92;99719.84;5040296;28;20481;-59
2022/04/10 06:26:49;;;;;;;8.07;2.72;;;;;;;8.20;58.33;99717.00;5034496;28;20381;-58
2022/04/10 06:29:16;;;;;;;8.77;2.70;;;;;;;8.07;58.83;99719.91;5034140;28;20116;-59
2022/04/10 06:31:41;;;;;;;10.45;2.60;;;;;;;7.80;59.25;99723.09;5022000;28;20033;-58
2022/04/10 06:34:07;;;;;;;10.00;2.45;;;;;;;7.65;59.86;99740.81;5022048;28;20121;-58
2022/04/10 06:36:32;;;;;;;12.10;3.42;;;;;;;7.78;59.62;99735.31;5018183;28;20030;-58
2022/04/10 06:38:58;;;;;;;8.55;3.15;;;;;;;7.59;59.75;99737.47;5015192;28;20053;-58
2022/04/10 06:41:23;;;;;;;8.13;2.60;;;;;;;7.96;59.18;99728.88;5014450;28;20489;-58
2022/04/10 06:43:49;;;;;;;10.60;2.50;;;;;;;8.35;57.88;99734.97;5020228;28;20473;-58
2022/04/10 06:46:15;;;;;;;8.80;2.45;;;;;;;8.05;58.15;99737.38;5030103;28;20037;-58
2022/04/10 06:48:40;;;;;;;6.88;2.63;;;;;;;8.50;57.21;99732.06;5028561;28;20109;-58
2022/04/10 06:51:06;;;;;;;7.78;2.53;;;;;;;8.65;56.05;99736.03;5020188;28;20176;-57
2022/04/10 06:53:31;;;;;;;9.13;2.42;;;;;;;8.67;56.17;99736.03;5028868;28;20025;-58
2022/04/10 06:55:56;;;;;;;7.18;2.83;;;;;;;8.87;55.73;99741.63;5029058;28;20491;-57
2022/04/10 06:58:22;;;;;;;10.98;3.10;;;;;;;8.64;55.74;99766.59;5014553;28;20038;-59
2022/04/10 07:00:52;;;;;;;9.38;3.70;;;;;;;8.69;55.45;99763.88;5014294;28;20053;-57
2022/04/10 07:03:17;;;;;;;9.40;3.00;;;;;;;8.79;54.94;99775.00;5014180;28;20045;-58
2022/04/10 07:05:44;;;;;;;6.03;2.35;;;;;;;8.97;54.67;99758.81;5016742;28;20038;-60
2022/04/10 07:08:10;;;;;;;10.70;2.80;;;;;;;9.03;54.53;99763.06;5033747;28;20033;-57
2022/04/10 07:10:37;;;;;;;8.98;2.92;;;;;;;9.11;53.77;99769.84;5031407;28;20041;-59
2022/04/10 07:13:03;;;;;;;6.38;2.40;;;;;;;8.91;54.20;99764.25;5025932;28;20049;-59
2022/04/10 07:15:28;;;;;;;8.88;2.90;;;;;;;8.69;55.06;99778.72;5013969;28;20457;-58
2022/04/10 07:17:56;;;;;;;7.18;2.15;;;;;;;8.17;55.02;99759.78;5014668;28;20105;-58
2022/04/10 07:20:21;;;;;;;8.68;2.45;;;;;;;8.54;54.95;99788.69;5013746;28;20454;-58
2022/04/10 07:25:30;;;;;;;7.35;2.20;;;;;;;8.81;53.69;99767.97;5032461;28;20546;-58
2022/04/10 07:27:56;;;;;;;10.05;2.55;;;;;;;9.11;52.92;99787.31;5016407;28;20489;-58
2022/04/10 07:30:21;;;;;;;7.95;2.22;;;;;;;9.03;53.22;99773.56;5024775;28;20038;-58
2022/04/10 07:32:51;;;;;;;6.75;2.38;;;;;;;8.73;53.57;99767.28;5031723;28;20038;-57
2022/04/10 07:35:16;;;;;;;7.68;2.45;;;;;;;8.70;53.63;99765.63;5033577;28;20037;-57
2022/04/10 07:37:42;;;;;;;13.73;3.17;;;;;;;8.60;53.48;99777.19;5028799;28;20053;-57
2022/04/10 07:40:08;;;;;;;8.50;2.08;;;;;;;8.56;53.56;99796.50;5014146;28;20445;-58
2022/04/10 07:42:38;;;;;;;10.73;2.17;;;;;;;8.81;53.15;99787.16;5015328;28;20386;-57
2022/04/10 07:45:04;;;;;;;9.77;1.92;;;;;;;8.98;53.09;99802.50;5032173;28;20046;-56
2022/04/10 07:47:31;;;;;;;11.07;2.10;;;;;;;9.10;52.76;99823.16;5021096;28;20121;-58
2022/04/10 07:49:57;;;;;;;9.13;2.47;;;;;;;8.87;52.66;99788.78;5012364;28;20455;-58
2022/04/10 07:52:23;;;;;;;8.10;1.92;;;;;;;9.34;51.35;99790.22;5013543;28;20386;-58
2022/04/10 07:54:50;;;;;;;7.65;1.98;;;;;;;9.76;50.99;99782.09;5013604;28;20033;-58
2022/04/10 07:57:16;;;;;;;9.27;2.10;;;;;;;9.77;50.66;99798.69;5027345;28;20033;-57
2022/04/10 07:59:42;;;;;;;6.57;2.03;;;;;;;9.81;49.61;99811.72;5014860;28;20121;-58
2022/04/10 08:02:07;;;;;;;7.47;2.10;;;;;;;9.29;50.85;99820.91;5013436;28;20062;-58
2022/04/10 08:04:33;;;;;;;12.57;2.55;;;;;;;9.37;51.44;99815.47;5026035;28;20473;-57
2022/04/10 08:06:58;;;;;;;14.32;2.92;;;;;;;9.40;51.30;99810.16;5030200;28;20091;-59
2022/04/10 08:09:24;;;;;;;9.55;2.50;;;;;;;9.43;51.38;99815.34;5032811;28;20045;-58
2022/04/10 08:11:50;;;;;;;10.52;2.47;;;;;;;9.53;50.91;99832.53;5031538;28;20066;-58
2022/04/10 08:14:16;;;;;;;7.10;2.10;;;;;;;9.52;50.18;99825.59;5023202;28;20099;-58
2022/04/10 08:16:41;;;;;;;10.93;2.15;;;;;;;9.80;50.07;99830.09;5023561;28;20104;-58
2022/04/10 08:19:07;;;;;;;9.73;2.55;;;;;;;9.70;49.94;99839.13;5036975;28;20037;-57
2022/04/10 08:21:33;;;;;;;10.20;2.45;;;;;;;9.65;50.28;99849.72;5023128;28;20034;-57
2022/04/10 08:23:58;;;;;;;11.52;2.13;;;;;;;9.34;50.39;99850.53;5017432;28;20065;-58
2022/04/10 08:26:24;;;;;;;8.80;1.70;;;;;;;9.08;50.67;99837.19;5029458;28;20069;-59
2022/04/10 08:28:49;;;;;;;8.15;1.70;;;;;;;9.21;50.49;99835.13;5034976;28;20116;-56
2022/04/10 08:31:15;;;;;;;6.18;1.92;;;;;;;9.32;50.31;99840.97;5034781;28;20385;-58
2022/04/10 08:33:40;;;;;;;6.70;1.85;;;;;;;9.17;49.92;99859.69;5036709;28;20069;-58
2022/04/10 08:36:06;;;;;;;6.63;1.50;;;;;;;9.02;49.28;99880.13;5031645;28;20036;-58
2022/04/10 08:38:31;;;;;;;13.43;2.22;;;;;;;9.34;48.86;99839.19;5016763;28;20053;-58
2022/04/10 08:41:01;;;;;;;6.88;1.70;;;;;;;9.53;47.66;99843.03;5027803;28;20058;-58
2022/04/10 08:43:35;;;;;;;8.70;1.75;;;;;;;9.46;46.76;99857.22;5036473;28;20034;-58
2022/04/10 08:46:01;;;;;;;7.90;1.70;;;;;;;9.91;46.61;99838.53;5036590;28;20464;-58
2022/04/10 08:48:26;;;;;;;7.88;1.50;;;;;;;10.12;44.10;99843.19;5036269;28;20120;-58
2022/04/10 08:50:56;;;;;;;6.40;1.60;;;;;;;10.27;43.63;99851.56;5035553;28;20113;-58
2022/04/10 08:53:24;;;;;;;5.57;1.42;;;;;;;10.05;44.07;99846.03;5033942;28;20037;-58
2022/04/10 08:55:50;;;;;;;7.38;1.63;;;;;;;10.15;44.23;99851.88;5021889;28;20026;-58
2022/04/10 08:58:15;;;;;;;8.05;1.55;;;;;;;10.16;44.46;99824.72;5016585;28;20386;-58
2022/04/10 09:00:43;;;;;;;11.25;1.42;;;;;;;10.27;44.72;99862.06;5027470;28;20052;-58
2022/04/10 09:03:08;;;;;;;8.40;1.92;;;;;;;10.09;44.58;99856.41;5035229;28;20033;-58
2022/04/10 09:05:34;;;;;;;6.93;1.60;;;;;;;10.03;44.89;99859.19;5031783;28;21276;-58
2022/04/10 09:08:13;;;;;;;8.10;1.52;;;;;;;9.99;44.97;99890.81;5016102;28;20084;-57
2022/04/10 09:11:08;;;;;;;8.13;1.65;;;;;;;10.00;45.12;99859.28;5015259;28;20046;-58
2022/04/10 09:13:37;;;;;;;7.57;1.50;;;;;;;10.07;44.81;99875.72;5016156;28;20033;-58
2022/04/10 09:16:11;;;;;;;5.28;1.20;;;;;;;9.89;45.56;99861.31;5030802;28;20041;-58
2022/04/10 09:18:58;;;;;;;6.85;1.52;;;;;;;10.27;43.55;99878.69;5024975;28;20041;-57
2022/04/10 09:21:32;;;;;;;8.13;1.33;;;;;;;10.08;43.80;99907.16;5022965;28;20048;-58
2022/04/10 09:24:01;;;;;;;5.90;1.27;;;;;;;10.11;44.30;99893.97;5033409;28;20030;-58
2022/04/10 09:26:41;;;;;;;6.45;1.30;;;;;;;10.24;44.03;99883.13;5015373;28;20034;-58
2022/04/10 09:29:06;;;;;;;8.23;1.73;;;;;;;10.67;43.15;99889.81;5016836;28;20072;-57
2022/04/10 09:31:35;;;;;;;7.05;1.80;;;;;;;11.05;42.53;99872.84;5015344;28;20363;-58
2022/04/10 09:34:05;;;;;;;8.57;2.10;;;;;;;11.37;42.02;99882.34;5015494;28;20478;-58
2022/04/10 09:36:31;;;;;;;5.15;1.83;;;;;;;11.18;42.41;99874.19;5033796;28;20416;-58
2022/04/10 09:38:56;;;;;;;5.35;1.50;;;;;;;11.05;41.41;99884.25;5035226;28;20374;-58
2022/04/10 09:41:22;;;;;;;6.28;1.45;;;;;;;10.64;41.58;99871.50;5031456;28;20056;-58
2022/04/10 09:43:47;;;;;;;6.90;1.17;;;;;;;10.42;41.71;99879.16;5014287;28;20466;-58
2022/04/10 09:46:13;;;;;;;9.38;1.60;;;;;;;10.37;42.27;99881.91;5030649;28;20465;-58
2022/04/10 09:48:39;;;;;;;4.63;1.50;;;;;;;10.56;41.43;99885.72;5030480;28;20029;-58
2022/04/10 09:51:04;;;;;;;6.55;1.35;;;;;;;10.34;41.21;99889.88;5026380;28;20108;-57
2022/04/10 09:53:32;;;;;;;7.55;1.30;;;;;;;10.56;41.05;99874.34;5014948;28;20038;-57
2022/04/10 09:56:03;;;;;;;4.63;1.10;;;;;;;10.89;40.31;99887.38;5016501;28;20042;-58
2022/04/10 09:58:30;;;;;;;6.65;1.42;;;;;;;10.59;40.75;99887.41;5031180;28;20436;-58
2022/04/10 10:00:57;;;;;;;7.03;1.20;;;;;;;10.72;40.13;99885.25;5015537;28;20030;-58
2022/04/10 10:03:24;;;;;;;6.68;1.35;;;;;;;10.44;40.13;99887.84;5015661;28;20034;-58
2022/04/10 10:05:52;;;;;;;4.35;1.17;;;;;;;10.46;40.26;99883.44;5014960;28;20054;-58
2022/04/10 10:08:17;;;;;;;9.52;1.60;;;;;;;10.72;39.72;99885.25;5014990;28;20038;-57
2022/04/10 10:10:44;;;;;;;7.30;1.30;;;;;;;10.51;38.89;99907.78;5031984;28;20037;-59
2022/04/10 10:13:12;;;;;;;6.13;1.90;;;;;;;10.81;39.38;99880.63;5034358;28;20477;-58
2022/04/10 10:15:38;;;;;;;3.95;1.40;;;;;;;10.97;38.75;99878.38;5029735;28;20045;-58
2022/04/10 10:18:06;;;;;;;7.35;2.85;;;;;;;11.13;38.54;99891.00;5033492;28;20033;-58
2022/04/10 10:20:32;;;;;;;7.35;1.25;;;;;;;11.37;38.51;99884.09;5034527;28;20037;-58
2022/04/10 10:23:01;;;;;;;4.43;1.30;;;;;;;11.30;38.88;99894.84;5021847;28;20543;-58
2022/04/10 10:25:33;;;;;;;5.53;1.33;;;;;;;11.42;38.34;99890.09;5015689;28;20091;-58
2022/04/10 10:28:19;;;;;;;8.15;1.50;;;;;;;11.45;38.26;99884.72;5025802;28;20037;-57
2022/04/10 10:31:03;;;;;;;5.30;1.67;;;;;;;11.63;37.72;99886.75;5014693;28;20026;-57
2022/04/10 10:33:30;;;;;;;6.97;1.48;;;;;;;11.66;36.49;99891.03;5028406;28;20389;-58
2022/04/10 10:35:58;;;;;;;3.58;1.20;;;;;;;11.51;36.91;99905.56;5034034;28;20033;-58
2022/04/10 10:38:27;;;;;;;4.32;1.20;;;;;;;11.65;36.92;99899.81;5029813;28;20046;-58
2022/04/10 10:41:16;;;;;;;4.70;1.50;;;;;;;11.53;37.44;99912.50;5013545;28;20054;-57
2022/04/10 10:43:42;;;;;;;4.85;1.30;;;;;;;11.28;39.31;99927.34;5014597;28;20450;-58
2022/04/10 10:46:54;;;;;;;6.60;1.30;;;;;;;10.38;44.00;99965.06;5016867;28;20053;-58
2022/04/10 10:49:20;;;;;;;12.35;1.40;;;;;;;10.02;44.51;99943.25;5027857;28;20125;-58
2022/04/10 10:51:55;;;;;;;5.45;0.88;;;;;;;9.63;44.54;99953.84;5015258;28;20033;-58
2022/04/10 10:54:34;;;;;;;7.18;1.40;;;;;;;9.60;45.26;99946.91;5023437;28;20392;-58
2022/04/10 10:57:19;;;;;;;2.83;0.90;;;;;;;10.05;44.73;99945.75;5014579;28;20465;-59
2022/04/10 10:59:45;;;;;;;7.63;1.48;;;;;;;9.97;46.43;99940.72;5019326;28;20488;-60
2022/04/10 11:02:14;;;;;;;3.92;1.20;;;;;;;10.08;46.67;99940.44;5033547;28;20065;-57
2022/04/10 11:04:42;;;;;;;3.75;1.00;;;;;;;10.45;45.93;99944.72;5028085;28;20038;-58
2022/04/10 11:07:12;;;;;;;6.18;1.20;;;;;;;10.22;46.57;99954.06;5028764;28;20473;-58
2022/04/10 11:10:00;;;;;;;6.18;1.13;;;;;;;10.45;46.04;99942.09;5031845;28;20087;-58
2022/04/10 11:12:49;;;;;;;6.57;1.20;;;;;;;10.83;45.32;99947.09;5033472;28;20025;-58
2022/04/10 11:15:28;;;;;;;17.33;8.77;;;;;;;11.25;44.07;99932.69;5025690;28;20084;-58
2022/04/10 11:17:54;;;;;;;22.35;16.40;;;;;;;11.32;44.01;99940.34;5017433;28;20393;-57
2022/04/10 11:20:22;;;;;;;6.18;3.22;;;;;;;11.38;43.96;99927.94;5033466;28;20033;-58
2022/04/10 11:22:49;;;;;;;8.10;4.60;;;;;;;11.71;43.79;99941.75;5030983;28;20108;-57
2022/04/10 11:25:27;;;;;;;5.72;1.30;;;;;;;11.51;42.58;99945.03;5014480;28;20469;-58
2022/04/10 11:27:58;;;;;;;6.28;1.40;;;;;;;11.85;40.43;99942.19;5021814;28;20022;-58
2022/04/10 11:30:38;;;;;;;6.05;2.58;;;;;;;12.37;39.71;99961.44;5025010;28;20034;-58
2022/04/10 11:33:06;;;;;;;4.97;1.90;;;;;;;12.70;39.85;99940.91;5020971;28;20060;-58
2022/04/10 11:35:36;;;;;;;7.85;2.58;;;;;;;12.63;39.22;99939.41;5022921;28;20026;-58
2022/04/10 11:38:05;;;;;;;7.20;3.35;;;;;;;12.78;39.82;99953.81;5027918;28;20032;-58
2022/04/10 11:40:33;;;;;;;19.58;14.25;;;;;;;12.72;40.33;99946.97;5033101;28;20515;-58
2022/04/10 11:43:02;;;;;;;30.98;26.05;;;;;;;12.99;39.72;99963.53;5032980;28;20036;-58
2022/04/10 11:45:29;;;;;;;7.85;3.80;;;;;;;13.10;38.96;99962.28;5031573;28;20061;-57